sensor_id;sensor_type;location;lat;lon;timestamp;pressure;altitude;pressure_sealevel;temperature;humidity
78615;BME280;67937;52.488;20.952;2023-04-12T00:01:22;99925.05;;;6.77;72.44
78615;BME280;67937;52.488;20.952;2023-04-12T00:03:51;99923.80;;;6.80;72.78
78615;BME280;67937;52.488;20.952;2023-04-12T00:06:19;99917.81;;;6.83;72.81
78615;BME280;67937;52.488;20.952;2023-04-12T00:08:50;99915.79;;;6.87;72.85
78615;BME280;67937;52.488;20.952;2023-04-12T00:11:18;99919.80;;;6.90;72.73
78615;BME280;67937;52.488;20.952;2023-04-12T00:13:46;99920.83;;;6.93;72.95
78615;BME280;67937;52.488;20.952;2023-04-12T00:16:14;99921.34;;;6.97;73.04
78615;BME280;67937;52.488;20.952;2023-04-12T00:18:42;99918.02;;;7.00;73.20
78615;BME280;67937;52.488;20.952;2023-04-12T00:21:11;99915.36;;;7.02;73.25
78615;BME280;67937;52.488;20.952;2023-04-12T00:23:39;99919.17;;;7.06;73.24
78615;BME280;67937;52.488;20.952;2023-04-12T00:26:07;99919.22;;;7.07;73.86
78615;BME280;67937;52.488;20.952;2023-04-12T00:28:35;99916.46;;;7.04;73.76
78615;BME280;67937;52.488;20.952;2023-04-12T00:31:03;99918.30;;;7.08;73.79
78615;BME280;67937;52.488;20.952;2023-04-12T00:33:33;99919.77;;;7.12;75.19
78615;BME280;67937;52.488;20.952;2023-04-12T00:36:01;99918.83;;;7.03;76.53
78615;BME280;67937;52.488;20.952;2023-04-12T00:38:30;99925.65;;;6.93;76.11
78615;BME280;67937;52.488;20.952;2023-04-12T00:40:59;99928.36;;;6.97;76.33
78615;BME280;67937;52.488;20.952;2023-04-12T00:43:27;99932.30;;;7.01;77.91
78615;BME280;67937;52.488;20.952;2023-04-12T00:45:56;99945.05;;;7.07;78.83
78615;BME280;67937;52.488;20.952;2023-04-12T00:48:25;99935.34;;;6.96;79.57
78615;BME280;67937;52.488;20.952;2023-04-12T00:50:54;99929.04;;;6.95;80.27
78615;BME280;67937;52.488;20.952;2023-04-12T00:53:23;99932.13;;;7.01;80.56
78615;BME280;67937;52.488;20.952;2023-04-12T00:55:51;99934.21;;;6.96;81.37
78615;BME280;67937;52.488;20.952;2023-04-12T00:58:21;99924.19;;;6.92;80.61
78615;BME280;67937;52.488;20.952;2023-04-12T01:00:50;99923.71;;;6.98;80.78
78615;BME280;67937;52.488;20.952;2023-04-12T01:03:21;99917.30;;;7.00;81.04
78615;BME280;67937;52.488;20.952;2023-04-12T01:08:42;99914.31;;;7.07;80.84
78615;BME280;67937;52.488;20.952;2023-04-12T01:13:56;99908.37;;;7.09;81.14
78615;BME280;67937;52.488;20.952;2023-04-12T01:16:35;99905.41;;;7.09;81.52
78615;BME280;67937;52.488;20.952;2023-04-12T01:27:43;99914.50;;;7.00;81.50
78615;BME280;67937;52.488;20.952;2023-04-12T01:30:15;99915.91;;;7.05;81.02
78615;BME280;67937;52.488;20.952;2023-04-12T01:32:47;99914.09;;;7.08;80.46
78615;BME280;67937;52.488;20.952;2023-04-12T01:35:18;99918.11;;;7.18;80.91
78615;BME280;67937;52.488;20.952;2023-04-12T01:37:47;99921.67;;;7.12;80.83
78615;BME280;67937;52.488;20.952;2023-04-12T01:40:17;99929.54;;;7.13;80.58
78615;BME280;67937;52.488;20.952;2023-04-12T01:42:45;99929.71;;;7.18;80.31
78615;BME280;67937;52.488;20.952;2023-04-12T01:45:13;99932.45;;;7.26;80.34
78615;BME280;67937;52.488;20.952;2023-04-12T01:47:41;99926.95;;;7.24;80.47
78615;BME280;67937;52.488;20.952;2023-04-12T01:50:21;99915.69;;;7.25;80.62
78615;BME280;67937;52.488;20.952;2023-04-12T01:53:00;99911.55;;;7.26;80.90
78615;BME280;67937;52.488;20.952;2023-04-12T01:55:30;99901.22;;;7.26;81.20
78615;BME280;67937;52.488;20.952;2023-04-12T01:58:01;99898.44;;;7.32;81.90
78615;BME280;67937;52.488;20.952;2023-04-12T02:00:29;99898.85;;;7.29;81.83
78615;BME280;67937;52.488;20.952;2023-04-12T02:02:58;99901.79;;;7.25;81.97
78615;BME280;67937;52.488;20.952;2023-04-12T02:05:27;99903.14;;;7.26;81.83
78615;BME280;67937;52.488;20.952;2023-04-12T02:07:55;99903.04;;;7.25;81.91
78615;BME280;67937;52.488;20.952;2023-04-12T02:10:30;99905.27;;;7.26;81.69
78615;BME280;67937;52.488;20.952;2023-04-12T02:12:59;99902.73;;;7.31;81.89
78615;BME280;67937;52.488;20.952;2023-04-12T02:15:28;99903.41;;;7.34;82.34
78615;BME280;67937;52.488;20.952;2023-04-12T02:17:56;99907.52;;;7.33;82.67
78615;BME280;67937;52.488;20.952;2023-04-12T02:20:25;99906.35;;;7.35;82.91
78615;BME280;67937;52.488;20.952;2023-04-12T02:22:53;99908.69;;;7.36;83.37
78615;BME280;67937;52.488;20.952;2023-04-12T02:25:21;99905.85;;;7.34;83.30
78615;BME280;67937;52.488;20.952;2023-04-12T02:27:49;99904.28;;;7.27;83.06
78615;BME280;67937;52.488;20.952;2023-04-12T02:30:17;99901.17;;;7.38;83.06
78615;BME280;67937;52.488;20.952;2023-04-12T02:32:45;99904.52;;;7.38;82.81
78615;BME280;67937;52.488;20.952;2023-04-12T02:35:14;99901.09;;;7.37;82.52
78615;BME280;67937;52.488;20.952;2023-04-12T02:37:45;99902.27;;;7.42;82.22
78615;BME280;67937;52.488;20.952;2023-04-12T02:40:14;99903.81;;;7.43;82.22
78615;BME280;67937;52.488;20.952;2023-04-12T02:42:43;99904.77;;;7.46;82.46
78615;BME280;67937;52.488;20.952;2023-04-12T02:45:11;99909.03;;;7.41;82.26
78615;BME280;67937;52.488;20.952;2023-04-12T02:47:39;99914.17;;;7.45;81.87
78615;BME280;67937;52.488;20.952;2023-04-12T02:50:07;99915.95;;;7.52;81.62
78615;BME280;67937;52.488;20.952;2023-04-12T02:52:35;99919.42;;;7.52;81.39
78615;BME280;67937;52.488;20.952;2023-04-12T02:55:04;99920.26;;;7.51;81.48
78615;BME280;67937;52.488;20.952;2023-04-12T02:57:32;99918.04;;;7.57;81.26
78615;BME280;67937;52.488;20.952;2023-04-12T03:00:01;99917.98;;;7.62;81.57
78615;BME280;67937;52.488;20.952;2023-04-12T03:02:33;99924.99;;;7.53;81.57
78615;BME280;67937;52.488;20.952;2023-04-12T03:05:01;99924.71;;;7.55;81.54
78615;BME280;67937;52.488;20.952;2023-04-12T03:07:30;99924.98;;;7.53;81.47
78615;BME280;67937;52.488;20.952;2023-04-12T03:09:58;99929.47;;;7.54;81.18
78615;BME280;67937;52.488;20.952;2023-04-12T03:12:26;99927.53;;;7.56;81.08
78615;BME280;67937;52.488;20.952;2023-04-12T03:14:55;99927.00;;;7.62;80.82
78615;BME280;67937;52.488;20.952;2023-04-12T03:17:23;99927.32;;;7.60;81.13
78615;BME280;67937;52.488;20.952;2023-04-12T03:19:51;99928.64;;;7.56;80.97
78615;BME280;67937;52.488;20.952;2023-04-12T03:22:20;99921.58;;;7.64;81.29
78615;BME280;67937;52.488;20.952;2023-04-12T03:24:48;99923.11;;;7.62;81.79
78615;BME280;67937;52.488;20.952;2023-04-12T03:27:17;99928.46;;;7.49;81.50
78615;BME280;67937;52.488;20.952;2023-04-12T03:29:45;99927.30;;;7.53;81.37
78615;BME280;67937;52.488;20.952;2023-04-12T03:32:13;99923.35;;;7.58;81.79
78615;BME280;67937;52.488;20.952;2023-04-12T03:34:41;99929.70;;;7.51;82.17
78615;BME280;67937;52.488;20.952;2023-04-12T03:37:11;99932.60;;;7.50;82.20
78615;BME280;67937;52.488;20.952;2023-04-12T03:39:40;99930.52;;;7.45;82.15
78615;BME280;67937;52.488;20.952;2023-04-12T03:42:10;99929.75;;;7.41;82.08
78615;BME280;67937;52.488;20.952;2023-04-12T03:44:38;99928.63;;;7.42;82.09
78615;BME280;67937;52.488;20.952;2023-04-12T03:47:06;99929.54;;;7.46;81.70
78615;BME280;67937;52.488;20.952;2023-04-12T03:49:34;99929.39;;;7.48;81.84
78615;BME280;67937;52.488;20.952;2023-04-12T03:52:04;99929.84;;;7.47;81.54
78615;BME280;67937;52.488;20.952;2023-04-12T03:54:33;99932.43;;;7.50;81.81
78615;BME280;67937;52.488;20.952;2023-04-12T03:57:01;99930.92;;;7.49;81.67
78615;BME280;67937;52.488;20.952;2023-04-12T03:59:29;99932.95;;;7.52;81.52
78615;BME280;67937;52.488;20.952;2023-04-12T04:01:58;99933.79;;;7.55;81.52
78615;BME280;67937;52.488;20.952;2023-04-12T04:04:27;99934.14;;;7.62;81.78
78615;BME280;67937;52.488;20.952;2023-04-12T04:06:55;99935.22;;;7.50;81.79
78615;BME280;67937;52.488;20.952;2023-04-12T04:09:23;99934.63;;;7.51;82.03
78615;BME280;67937;52.488;20.952;2023-04-12T04:11:51;99932.75;;;7.50;81.95
78615;BME280;67937;52.488;20.952;2023-04-12T04:14:19;99935.63;;;7.59;82.44
78615;BME280;67937;52.488;20.952;2023-04-12T04:16:47;99938.64;;;7.51;82.75
78615;BME280;67937;52.488;20.952;2023-04-12T04:19:15;99936.24;;;7.43;83.04
78615;BME280;67937;52.488;20.952;2023-04-12T04:21:43;99934.60;;;7.39;82.83
78615;BME280;67937;52.488;20.952;2023-04-12T04:24:11;99940.08;;;7.44;82.61
78615;BME280;67937;52.488;20.952;2023-04-12T04:26:39;99939.13;;;7.47;82.33
78615;BME280;67937;52.488;20.952;2023-04-12T04:29:08;99939.66;;;7.52;82.30
78615;BME280;67937;52.488;20.952;2023-04-12T04:31:37;99943.96;;;7.53;82.17
78615;BME280;67937;52.488;20.952;2023-04-12T04:34:05;99943.94;;;7.60;82.55
78615;BME280;67937;52.488;20.952;2023-04-12T04:36:36;99946.73;;;7.51;82.62
78615;BME280;67937;52.488;20.952;2023-04-12T04:39:04;99950.69;;;7.52;82.49
78615;BME280;67937;52.488;20.952;2023-04-12T04:41:32;99953.38;;;7.61;82.44
78615;BME280;67937;52.488;20.952;2023-04-12T04:44:05;99957.73;;;7.59;82.53
78615;BME280;67937;52.488;20.952;2023-04-12T04:46:35;99961.14;;;7.63;82.71
78615;BME280;67937;52.488;20.952;2023-04-12T04:49:04;99957.65;;;7.55;82.66
78615;BME280;67937;52.488;20.952;2023-04-12T04:51:32;99956.11;;;7.62;82.86
78615;BME280;67937;52.488;20.952;2023-04-12T04:54:02;99956.75;;;7.58;82.80
78615;BME280;67937;52.488;20.952;2023-04-12T04:56:30;99960.56;;;7.61;82.53
78615;BME280;67937;52.488;20.952;2023-04-12T04:58:59;99959.09;;;7.69;82.23
78615;BME280;67937;52.488;20.952;2023-04-12T05:01:27;99960.65;;;7.77;81.95
78615;BME280;67937;52.488;20.952;2023-04-12T05:03:55;99956.96;;;7.79;81.81
78615;BME280;67937;52.488;20.952;2023-04-12T05:06:23;99962.38;;;7.84;81.51
78615;BME280;67937;52.488;20.952;2023-04-12T05:08:52;99967.60;;;7.90;81.43
78615;BME280;67937;52.488;20.952;2023-04-12T05:11:20;99969.77;;;7.96;81.13
78615;BME280;67937;52.488;20.952;2023-04-12T05:13:48;99972.21;;;8.01;81.09
78615;BME280;67937;52.488;20.952;2023-04-12T05:16:16;99971.04;;;8.03;80.92
78615;BME280;67937;52.488;20.952;2023-04-12T05:18:45;99972.88;;;8.06;80.62
78615;BME280;67937;52.488;20.952;2023-04-12T05:21:13;99975.71;;;8.15;80.60
78615;BME280;67937;52.488;20.952;2023-04-12T05:23:43;99969.52;;;8.11;80.63
78615;BME280;67937;52.488;20.952;2023-04-12T05:26:11;99969.16;;;8.11;80.56
78615;BME280;67937;52.488;20.952;2023-04-12T05:28:40;99973.61;;;8.17;80.43
78615;BME280;67937;52.488;20.952;2023-04-12T05:31:08;99973.19;;;8.23;80.33
78615;BME280;67937;52.488;20.952;2023-04-12T05:33:36;99973.34;;;8.33;80.20
78615;BME280;67937;52.488;20.952;2023-04-12T05:36:04;99975.74;;;8.31;80.21
78615;BME280;67937;52.488;20.952;2023-04-12T05:38:32;99976.61;;;8.31;80.17
78615;BME280;67937;52.488;20.952;2023-04-12T05:41:00;99972.25;;;8.36;80.17
78615;BME280;67937;52.488;20.952;2023-04-12T05:43:30;99973.00;;;8.42;79.94
78615;BME280;67937;52.488;20.952;2023-04-12T05:45:59;99970.67;;;8.47;79.79
78615;BME280;67937;52.488;20.952;2023-04-12T05:48:27;99974.83;;;8.50;79.66
78615;BME280;67937;52.488;20.952;2023-04-12T05:50:55;99969.08;;;8.54;79.70
78615;BME280;67937;52.488;20.952;2023-04-12T05:53:23;99972.03;;;8.52;79.66
78615;BME280;67937;52.488;20.952;2023-04-12T05:55:55;99968.52;;;8.47;79.88
78615;BME280;67937;52.488;20.952;2023-04-12T05:58:23;99971.69;;;8.56;79.70
78615;BME280;67937;52.488;20.952;2023-04-12T06:00:51;99970.23;;;8.64;79.63
78615;BME280;67937;52.488;20.952;2023-04-12T06:03:21;99974.10;;;8.73;79.35
78615;BME280;67937;52.488;20.952;2023-04-12T06:05:51;99973.00;;;8.78;79.04
78615;BME280;67937;52.488;20.952;2023-04-12T06:08:20;99968.38;;;8.81;78.97
78615;BME280;67937;52.488;20.952;2023-04-12T06:10:48;99968.48;;;8.84;78.74
78615;BME280;67937;52.488;20.952;2023-04-12T06:13:16;99969.73;;;8.84;78.58
78615;BME280;67937;52.488;20.952;2023-04-12T06:15:44;99965.74;;;8.87;78.45
78615;BME280;67937;52.488;20.952;2023-04-12T06:18:12;99965.55;;;8.92;77.95
78615;BME280;67937;52.488;20.952;2023-04-12T06:20:41;99968.31;;;8.90;77.71
78615;BME280;67937;52.488;20.952;2023-04-12T06:23:09;99971.59;;;8.78;78.08
78615;BME280;67937;52.488;20.952;2023-04-12T06:25:37;99976.77;;;8.86;78.27
78615;BME280;67937;52.488;20.952;2023-04-12T06:28:05;99975.56;;;8.94;78.01
78615;BME280;67937;52.488;20.952;2023-04-12T06:30:33;99978.52;;;8.99;77.91
78615;BME280;67937;52.488;20.952;2023-04-12T06:33:01;99977.01;;;9.05;77.82
78615;BME280;67937;52.488;20.952;2023-04-12T06:35:29;99972.00;;;9.11;77.72
78615;BME280;67937;52.488;20.952;2023-04-12T06:37:57;99968.16;;;9.17;77.44
78615;BME280;67937;52.488;20.952;2023-04-12T06:40:25;99968.08;;;9.22;77.05
78615;BME280;67937;52.488;20.952;2023-04-12T06:42:53;99967.61;;;9.11;77.23
78615;BME280;67937;52.488;20.952;2023-04-12T06:45:22;99963.71;;;9.15;77.27
78615;BME280;67937;52.488;20.952;2023-04-12T06:47:50;99962.73;;;9.17;77.43
78615;BME280;67937;52.488;20.952;2023-04-12T06:50:18;99969.59;;;9.15;77.72
78615;BME280;67937;52.488;20.952;2023-04-12T06:52:46;99967.48;;;9.25;77.55
78615;BME280;67937;52.488;20.952;2023-04-12T06:55:14;99972.43;;;9.36;77.24
78615;BME280;67937;52.488;20.952;2023-04-12T06:57:43;99979.14;;;9.47;76.94
78615;BME280;67937;52.488;20.952;2023-04-12T07:00:12;99983.85;;;9.51;76.72
78615;BME280;67937;52.488;20.952;2023-04-12T07:02:40;99984.05;;;9.53;76.67
78615;BME280;67937;52.488;20.952;2023-04-12T07:05:08;99987.99;;;9.55;76.60
78615;BME280;67937;52.488;20.952;2023-04-12T07:07:36;99991.69;;;9.59;76.43
78615;BME280;67937;52.488;20.952;2023-04-12T07:10:05;99994.00;;;9.54;76.16
78615;BME280;67937;52.488;20.952;2023-04-12T07:12:33;99990.91;;;9.47;76.00
78615;BME280;67937;52.488;20.952;2023-04-12T07:15:02;99995.27;;;9.43;76.32
78615;BME280;67937;52.488;20.952;2023-04-12T07:17:30;99992.47;;;9.47;75.31
78615;BME280;67937;52.488;20.952;2023-04-12T07:19:58;99995.66;;;9.36;75.32
78615;BME280;67937;52.488;20.952;2023-04-12T07:22:26;99997.66;;;9.28;76.10
78615;BME280;67937;52.488;20.952;2023-04-12T07:24:54;100001.46;;;9.25;76.21
78615;BME280;67937;52.488;20.952;2023-04-12T07:27:22;100000.45;;;9.16;76.58
78615;BME280;67937;52.488;20.952;2023-04-12T07:29:51;100000.55;;;9.12;76.72
78615;BME280;67937;52.488;20.952;2023-04-12T07:32:20;99992.13;;;9.30;76.31
78615;BME280;67937;52.488;20.952;2023-04-12T07:34:48;99988.71;;;9.37;75.99
78615;BME280;67937;52.488;20.952;2023-04-12T07:37:16;99986.65;;;9.34;76.40
78615;BME280;67937;52.488;20.952;2023-04-12T07:39:44;99987.30;;;9.35;76.07
78615;BME280;67937;52.488;20.952;2023-04-12T07:42:12;99988.13;;;9.42;76.12
78615;BME280;67937;52.488;20.952;2023-04-12T07:44:40;99991.56;;;9.41;76.14
78615;BME280;67937;52.488;20.952;2023-04-12T07:47:08;99991.20;;;9.48;75.82
78615;BME280;67937;52.488;20.952;2023-04-12T07:49:36;99994.69;;;9.50;75.76
78615;BME280;67937;52.488;20.952;2023-04-12T07:52:04;99995.15;;;9.55;75.71
78615;BME280;67937;52.488;20.952;2023-04-12T07:54:32;99992.50;;;9.60;75.71
78615;BME280;67937;52.488;20.952;2023-04-12T07:57:01;99988.52;;;9.63;75.46
78615;BME280;67937;52.488;20.952;2023-04-12T07:59:29;99993.05;;;9.66;75.29
78615;BME280;67937;52.488;20.952;2023-04-12T08:01:59;99989.30;;;9.71;74.39
78615;BME280;67937;52.488;20.952;2023-04-12T08:04:27;99987.44;;;9.72;74.79
78615;BME280;67937;52.488;20.952;2023-04-12T08:06:55;99989.41;;;9.76;74.29
78615;BME280;67937;52.488;20.952;2023-04-12T08:09:23;99991.69;;;9.67;74.38
78615;BME280;67937;52.488;20.952;2023-04-12T08:11:51;99989.85;;;9.75;74.87
78615;BME280;67937;52.488;20.952;2023-04-12T08:14:19;99994.11;;;9.85;74.75
78615;BME280;67937;52.488;20.952;2023-04-12T08:16:48;99998.15;;;9.98;74.46
78615;BME280;67937;52.488;20.952;2023-04-12T08:19:17;99995.06;;;9.97;73.78
78615;BME280;67937;52.488;20.952;2023-04-12T08:21:45;99996.80;;;9.83;74.46
78615;BME280;67937;52.488;20.952;2023-04-12T08:24:13;100000.11;;;9.93;74.03
78615;BME280;67937;52.488;20.952;2023-04-12T08:26:41;100005.77;;;10.08;73.68
78615;BME280;67937;52.488;20.952;2023-04-12T08:29:09;100000.39;;;10.05;73.43
78615;BME280;67937;52.488;20.952;2023-04-12T08:31:38;100001.95;;;10.10;73.44
78615;BME280;67937;52.488;20.952;2023-04-12T08:34:06;100001.07;;;9.99;73.49
78615;BME280;67937;52.488;20.952;2023-04-12T08:36:34;100001.98;;;9.92;74.21
78615;BME280;67937;52.488;20.952;2023-04-12T08:39:02;99996.42;;;10.06;73.95
78615;BME280;67937;52.488;20.952;2023-04-12T08:41:32;99997.17;;;10.19;73.34
78615;BME280;67937;52.488;20.952;2023-04-12T08:44:01;99994.86;;;10.17;73.10
78615;BME280;67937;52.488;20.952;2023-04-12T08:46:30;99990.91;;;10.13;73.41
78615;BME280;67937;52.488;20.952;2023-04-12T08:48:58;99984.20;;;10.24;73.34
78615;BME280;67937;52.488;20.952;2023-04-12T08:51:26;99987.20;;;10.32;72.95
78615;BME280;67937;52.488;20.952;2023-04-12T08:53:54;99989.73;;;10.34;72.61
78615;BME280;67937;52.488;20.952;2023-04-12T08:56:22;99988.61;;;10.43;71.94
78615;BME280;67937;52.488;20.952;2023-04-12T08:58:51;99991.39;;;10.37;71.88
78615;BME280;67937;52.488;20.952;2023-04-12T09:01:20;99997.48;;;10.30;72.40
78615;BME280;67937;52.488;20.952;2023-04-12T09:03:48;100002.98;;;10.27;72.37
78615;BME280;67937;52.488;20.952;2023-04-12T09:06:16;100003.94;;;10.20;72.61
78615;BME280;67937;52.488;20.952;2023-04-12T09:08:51;100004.24;;;10.03;73.21
78615;BME280;67937;52.488;20.952;2023-04-12T09:11:21;100004.94;;;10.12;73.02
78615;BME280;67937;52.488;20.952;2023-04-12T09:13:50;100002.70;;;10.09;72.95
78615;BME280;67937;52.488;20.952;2023-04-12T09:16:39;100001.46;;;10.14;73.39
78615;BME280;67937;52.488;20.952;2023-04-12T09:19:08;99996.05;;;10.19;72.17
78615;BME280;67937;52.488;20.952;2023-04-12T09:21:36;99990.06;;;10.15;72.03
78615;BME280;67937;52.488;20.952;2023-04-12T09:24:18;99991.42;;;10.11;72.71
78615;BME280;67937;52.488;20.952;2023-04-12T09:27:03;99984.65;;;10.16;72.46
78615;BME280;67937;52.488;20.952;2023-04-12T09:29:32;99979.91;;;10.25;72.68
78615;BME280;67937;52.488;20.952;2023-04-12T09:32:05;99969.77;;;10.26;72.36
78615;BME280;67937;52.488;20.952;2023-04-12T09:34:35;99963.93;;;10.45;72.36
78615;BME280;67937;52.488;20.952;2023-04-12T09:37:16;99965.96;;;10.69;71.87
78615;BME280;67937;52.488;20.952;2023-04-12T09:39:44;99965.91;;;10.81;70.94
78615;BME280;67937;52.488;20.952;2023-04-12T09:42:12;99971.46;;;10.89;69.83
78615;BME280;67937;52.488;20.952;2023-04-12T09:44:41;99966.77;;;10.88;70.31
78615;BME280;67937;52.488;20.952;2023-04-12T09:47:09;99971.19;;;10.88;70.97
78615;BME280;67937;52.488;20.952;2023-04-12T09:49:39;99972.00;;;11.00;71.03
78615;BME280;67937;52.488;20.952;2023-04-12T09:52:09;99968.73;;;11.08;70.39
78615;BME280;67937;52.488;20.952;2023-04-12T09:54:41;99967.36;;;11.03;69.93
78615;BME280;67937;52.488;20.952;2023-04-12T09:57:10;99961.38;;;10.93;70.73
78615;BME280;67937;52.488;20.952;2023-04-12T09:59:40;99960.77;;;11.00;70.64
78615;BME280;67937;52.488;20.952;2023-04-12T10:02:16;99958.98;;;11.06;69.92
78615;BME280;67937;52.488;20.952;2023-04-12T10:04:47;99958.92;;;10.87;70.41
78615;BME280;67937;52.488;20.952;2023-04-12T10:07:15;99963.30;;;10.93;70.27
78615;BME280;67937;52.488;20.952;2023-04-12T10:09:44;99956.63;;;10.97;70.10
78615;BME280;67937;52.488;20.952;2023-04-12T10:12:14;99955.04;;;11.05;70.27
78615;BME280;67937;52.488;20.952;2023-04-12T10:14:42;99950.98;;;11.42;70.06
78615;BME280;67937;52.488;20.952;2023-04-12T10:17:12;99952.58;;;11.74;68.58
78615;BME280;67937;52.488;20.952;2023-04-12T10:19:40;99954.36;;;12.01;67.42
78615;BME280;67937;52.488;20.952;2023-04-12T10:22:08;99955.21;;;12.11;66.64
78615;BME280;67937;52.488;20.952;2023-04-12T10:24:37;99954.10;;;12.00;66.59
78615;BME280;67937;52.488;20.952;2023-04-12T10:27:05;99960.48;;;11.80;67.44
78615;BME280;67937;52.488;20.952;2023-04-12T10:29:33;99958.16;;;11.90;67.25
78615;BME280;67937;52.488;20.952;2023-04-12T10:32:22;99956.23;;;11.88;67.59
78615;BME280;67937;52.488;20.952;2023-04-12T10:34:52;99957.89;;;12.12;67.33
78615;BME280;67937;52.488;20.952;2023-04-12T10:37:21;99957.95;;;12.12;66.73
78615;BME280;67937;52.488;20.952;2023-04-12T10:40:15;99959.86;;;11.97;67.30
78615;BME280;67937;52.488;20.952;2023-04-12T10:42:44;99961.10;;;11.95;66.79
78615;BME280;67937;52.488;20.952;2023-04-12T10:47:59;99957.21;;;12.00;68.00
78615;BME280;67937;52.488;20.952;2023-04-12T10:50:31;99955.65;;;12.25;67.75
78615;BME280;67937;52.488;20.952;2023-04-12T10:55:38;99961.73;;;12.82;64.20
78615;BME280;67937;52.488;20.952;2023-04-12T10:58:07;99956.01;;;12.60;64.49
78615;BME280;67937;52.488;20.952;2023-04-12T11:03:26;99959.59;;;12.73;64.59
78615;BME280;67937;52.488;20.952;2023-04-12T11:06:03;99957.35;;;12.81;65.39
78615;BME280;67937;52.488;20.952;2023-04-12T11:08:38;99954.30;;;12.75;64.62
78615;BME280;67937;52.488;20.952;2023-04-12T11:11:18;99955.55;;;12.50;65.96
78615;BME280;67937;52.488;20.952;2023-04-12T11:13:46;99954.37;;;12.68;65.35
78615;BME280;67937;52.488;20.952;2023-04-12T11:16:14;99949.88;;;12.76;65.32
78615;BME280;67937;52.488;20.952;2023-04-12T11:18:45;99949.72;;;12.63;65.41
78615;BME280;67937;52.488;20.952;2023-04-12T11:21:13;99946.37;;;12.71;65.15
78615;BME280;67937;52.488;20.952;2023-04-12T11:23:42;99947.66;;;12.80;64.75
78615;BME280;67937;52.488;20.952;2023-04-12T11:26:10;99941.64;;;12.64;65.32
78615;BME280;67937;52.488;20.952;2023-04-12T11:28:38;99938.79;;;12.91;65.18
78615;BME280;67937;52.488;20.952;2023-04-12T11:31:06;99938.85;;;13.00;64.60
78615;BME280;67937;52.488;20.952;2023-04-12T11:33:38;99938.39;;;12.91;64.16
78615;BME280;67937;52.488;20.952;2023-04-12T11:36:11;99939.29;;;12.76;64.49
78615;BME280;67937;52.488;20.952;2023-04-12T11:38:39;99935.98;;;12.85;65.03
78615;BME280;67937;52.488;20.952;2023-04-12T11:41:08;99930.54;;;13.09;63.95
78615;BME280;67937;52.488;20.952;2023-04-12T11:43:37;99924.09;;;13.10;64.38
78615;BME280;67937;52.488;20.952;2023-04-12T11:46:05;99919.05;;;13.71;63.85
78615;BME280;67937;52.488;20.952;2023-04-12T11:48:34;99913.60;;;13.82;62.33
78615;BME280;67937;52.488;20.952;2023-04-12T11:51:22;99910.64;;;13.81;61.78
78615;BME280;67937;52.488;20.952;2023-04-12T11:53:54;99903.07;;;14.00;62.13
78615;BME280;67937;52.488;20.952;2023-04-12T11:56:22;99895.69;;;14.48;60.58
78615;BME280;67937;52.488;20.952;2023-04-12T11:58:51;99893.93;;;14.63;60.68
78615;BME280;67937;52.488;20.952;2023-04-12T12:01:20;99891.92;;;14.84;59.56
78615;BME280;67937;52.488;20.952;2023-04-12T12:03:49;99893.04;;;14.88;59.80
78615;BME280;67937;52.488;20.952;2023-04-12T12:06:18;99887.77;;;15.06;61.14
78615;BME280;67937;52.488;20.952;2023-04-12T12:08:48;99884.30;;;15.43;58.37
78615;BME280;67937;52.488;20.952;2023-04-12T12:11:18;99880.73;;;15.29;57.28
78615;BME280;67937;52.488;20.952;2023-04-12T12:16:23;99877.05;;;15.02;57.88
78615;BME280;67937;52.488;20.952;2023-04-12T12:18:52;99867.88;;;14.66;58.83
78615;BME280;67937;52.488;20.952;2023-04-12T12:21:20;99860.66;;;14.66;59.05
78615;BME280;67937;52.488;20.952;2023-04-12T12:23:48;99857.55;;;14.79;58.73
78615;BME280;67937;52.488;20.952;2023-04-12T12:26:21;99850.10;;;15.11;59.35
78615;BME280;67937;52.488;20.952;2023-04-12T12:28:51;99847.84;;;15.61;58.02
78615;BME280;67937;52.488;20.952;2023-04-12T12:31:20;99843.86;;;15.58;55.59
78615;BME280;67937;52.488;20.952;2023-04-12T12:33:53;99848.88;;;15.32;58.26
78615;BME280;67937;52.488;20.952;2023-04-12T12:36:31;99845.91;;;15.19;56.87
78615;BME280;67937;52.488;20.952;2023-04-12T12:39:10;99846.08;;;15.09;57.57
78615;BME280;67937;52.488;20.952;2023-04-12T12:41:40;99842.74;;;15.22;57.10
78615;BME280;67937;52.488;20.952;2023-04-12T12:44:09;99843.92;;;15.43;58.09
78615;BME280;67937;52.488;20.952;2023-04-12T12:46:37;99843.42;;;15.56;57.22
78615;BME280;67937;52.488;20.952;2023-04-12T12:49:05;99843.04;;;15.62;57.10
78615;BME280;67937;52.488;20.952;2023-04-12T12:51:33;99839.61;;;15.68;56.91
78615;BME280;67937;52.488;20.952;2023-04-12T12:54:02;99833.46;;;15.64;56.03
78615;BME280;67937;52.488;20.952;2023-04-12T12:56:30;99830.42;;;15.46;56.51
78615;BME280;67937;52.488;20.952;2023-04-12T12:58:58;99826.59;;;15.62;56.30
78615;BME280;67937;52.488;20.952;2023-04-12T13:01:26;99833.57;;;15.66;56.18
78615;BME280;67937;52.488;20.952;2023-04-12T13:03:54;99832.35;;;15.72;56.01
78615;BME280;67937;52.488;20.952;2023-04-12T13:06:24;99827.48;;;15.97;55.57
78615;BME280;67937;52.488;20.952;2023-04-12T13:08:53;99829.85;;;16.03;56.16
78615;BME280;67937;52.488;20.952;2023-04-12T13:11:21;99828.15;;;15.99;55.09
78615;BME280;67937;52.488;20.952;2023-04-12T13:13:49;99827.69;;;15.94;55.81
78615;BME280;67937;52.488;20.952;2023-04-12T13:16:17;99823.61;;;15.97;55.90
78615;BME280;67937;52.488;20.952;2023-04-12T13:18:45;99822.98;;;15.83;56.08
78615;BME280;67937;52.488;20.952;2023-04-12T13:21:13;99820.69;;;15.91;56.67
78615;BME280;67937;52.488;20.952;2023-04-12T13:23:41;99821.08;;;15.88;56.76
78615;BME280;67937;52.488;20.952;2023-04-12T13:26:09;99818.71;;;15.85;56.61
78615;BME280;67937;52.488;20.952;2023-04-12T13:28:37;99822.02;;;15.52;56.90
78615;BME280;67937;52.488;20.952;2023-04-12T13:31:06;99820.52;;;15.23;57.41